createdAt,value
2017-09-18T00:01:19.875Z,12.30
2017-09-18T00:03:46.146Z,9.60
2017-09-18T00:06:12.509Z,9.20
2017-09-18T00:08:38.750Z,10.07
2017-09-18T00:11:05.039Z,8.00
2017-09-18T00:13:31.262Z,9.20
2017-09-18T00:15:57.514Z,9.13
2017-09-18T00:18:24.555Z,8.80
2017-09-18T00:20:50.791Z,9.50
2017-09-18T00:23:17.037Z,8.83
2017-09-18T00:25:43.317Z,10.40
2017-09-18T00:28:09.574Z,10.40
2017-09-18T00:30:35.815Z,7.97
2017-09-18T00:33:02.077Z,9.27
2017-09-18T00:35:29.060Z,9.80
2017-09-18T00:37:55.386Z,10.37
2017-09-18T00:40:21.616Z,10.20
2017-09-18T00:42:47.867Z,9.70
2017-09-18T00:45:14.135Z,9.37
2017-09-18T00:47:41.130Z,9.90
2017-09-18T00:50:07.414Z,9.20
2017-09-18T00:52:34.565Z,9.57
2017-09-18T00:55:01.606Z,10.60
2017-09-18T00:57:28.619Z,8.80
2017-09-18T00:59:54.922Z,9.50
2017-09-18T01:02:21.185Z,10.70
2017-09-18T01:04:47.440Z,10.57
2017-09-18T01:07:14.664Z,10.20
2017-09-18T01:09:40.945Z,9.00
2017-09-18T01:12:07.184Z,9.30
2017-09-18T01:14:33.473Z,9.40
2017-09-18T01:16:59.699Z,9.60
2017-09-18T01:19:25.929Z,9.30
2017-09-18T01:21:52.428Z,8.63
2017-09-18T01:24:18.670Z,9.80
2017-09-18T01:26:44.897Z,9.70
2017-09-18T01:29:11.152Z,9.57
2017-09-18T01:31:37.692Z,8.73
2017-09-18T01:34:04.693Z,8.30
2017-09-18T01:36:31.134Z,9.00
2017-09-18T01:38:57.365Z,8.87
2017-09-18T01:41:23.583Z,9.80
2017-09-18T01:43:49.832Z,10.97
2017-09-18T01:46:16.061Z,10.30
2017-09-18T01:48:42.291Z,10.37
2017-09-18T01:51:08.911Z,9.70
2017-09-18T01:53:35.161Z,10.67
2017-09-18T01:56:01.385Z,9.83
2017-09-18T01:58:27.704Z,10.00
2017-09-18T02:00:53.922Z,10.83
2017-09-18T02:03:20.156Z,10.97
2017-09-18T02:05:46.794Z,9.40
2017-09-18T02:08:13.020Z,10.90
2017-09-18T02:10:39.244Z,10.87
2017-09-18T02:13:05.553Z,11.13
2017-09-18T02:15:31.786Z,11.50
2017-09-18T02:17:58.014Z,11.23
2017-09-18T02:20:24.573Z,10.07
2017-09-18T02:22:50.797Z,11.23
2017-09-18T02:25:17.035Z,10.47
2017-09-18T02:27:43.311Z,12.00
2017-09-18T02:30:09.538Z,11.53
2017-09-18T02:32:36.017Z,10.80
2017-09-18T02:35:02.270Z,10.97
2017-09-18T02:37:28.505Z,10.10
2017-09-18T02:39:55.564Z,11.80
2017-09-18T02:42:22.527Z,10.60
2017-09-18T02:44:48.764Z,9.23
2017-09-18T02:47:15.015Z,10.20
2017-09-18T02:49:41.237Z,10.60
2017-09-18T02:52:07.463Z,11.23
2017-09-18T02:54:33.690Z,10.53
2017-09-18T02:56:59.917Z,10.77
2017-09-18T02:59:26.161Z,10.30
2017-09-18T03:01:52.392Z,12.17
2017-09-18T03:04:18.623Z,11.63
2017-09-18T03:06:44.912Z,12.37
2017-09-18T03:09:11.161Z,13.20
2017-09-18T03:11:37.381Z,13.37
2017-09-18T03:14:03.628Z,12.83
2017-09-18T03:16:29.845Z,11.20
2017-09-18T03:18:56.075Z,11.23
2017-09-18T03:21:26.911Z,13.10
2017-09-18T03:23:53.125Z,12.40
2017-09-18T03:26:19.358Z,14.30
2017-09-18T03:28:45.915Z,14.10
2017-09-18T03:31:12.145Z,14.20
2017-09-18T03:33:38.372Z,13.60
2017-09-18T03:36:04.907Z,14.17
2017-09-18T03:38:31.169Z,12.57
2017-09-18T03:40:58.384Z,13.83
2017-09-18T03:43:24.662Z,13.13
2017-09-18T03:45:51.830Z,12.43
2017-09-18T03:48:18.037Z,12.80
2017-09-18T03:50:45.033Z,12.90
2017-09-18T03:53:11.427Z,12.90
2017-09-18T03:55:37.674Z,13.10
2017-09-18T03:58:03.897Z,12.90
2017-09-18T04:00:30.149Z,12.50
2017-09-18T04:02:57.372Z,14.23
2017-09-18T04:05:23.632Z,12.60
2017-09-18T04:07:49.861Z,12.90
2017-09-18T04:10:17.045Z,13.03
2017-09-18T04:12:45.167Z,12.60
2017-09-18T04:15:13.197Z,12.53
2017-09-18T04:17:40.379Z,13.30
2017-09-18T04:20:06.843Z,12.10
2017-09-18T04:22:33.974Z,13.00
2017-09-18T04:25:00.998Z,12.00
2017-09-18T04:27:27.468Z,12.93
2017-09-18T04:29:53.692Z,14.90
2017-09-18T04:32:20.031Z,15.70
2017-09-18T04:34:46.307Z,14.20
2017-09-18T04:37:13.278Z,14.33
2017-09-18T04:39:39.526Z,14.27
2017-09-18T04:42:05.796Z,15.60
2017-09-18T04:44:32.753Z,13.70
2017-09-18T04:46:58.981Z,13.50
2017-09-18T04:49:25.231Z,13.83
2017-09-18T04:51:51.450Z,14.07
2017-09-18T04:54:17.688Z,12.57
2017-09-18T04:56:43.973Z,11.60
2017-09-18T04:59:10.208Z,12.63
2017-09-18T05:01:37.195Z,12.60
2017-09-18T05:04:03.464Z,12.80
2017-09-18T05:06:29.701Z,12.90
2017-09-18T05:08:55.925Z,13.73
2017-09-18T05:11:22.169Z,14.03
2017-09-18T05:13:49.129Z,15.40
2017-09-18T05:16:15.378Z,15.70
2017-09-18T05:18:41.734Z,15.60
2017-09-18T05:21:07.961Z,16.53
2017-09-18T05:23:34.204Z,15.80
2017-09-18T05:26:01.185Z,15.30
2017-09-18T05:28:28.174Z,14.90
2017-09-18T05:30:54.425Z,16.80
2017-09-18T05:33:20.662Z,15.60
2017-09-18T05:35:46.893Z,15.90
2017-09-18T05:38:13.169Z,16.30
2017-09-18T05:40:39.399Z,17.20
2017-09-18T05:43:05.624Z,16.40
2017-09-18T05:45:31.969Z,19.70
2017-09-18T05:47:58.202Z,20.33
2017-09-18T05:50:24.424Z,18.93
2017-09-18T05:52:50.662Z,17.70
2017-09-18T05:55:16.917Z,18.37
2017-09-18T05:57:43.364Z,16.87
2017-09-18T06:00:10.417Z,20.20
2017-09-18T06:02:37.501Z,19.03
2017-09-18T06:05:03.770Z,17.97
2017-09-18T06:07:30.053Z,18.10
2017-09-18T06:09:56.616Z,18.50
2017-09-18T06:12:23.257Z,18.83
2017-09-18T06:14:49.485Z,18.07
2017-09-18T06:17:15.713Z,16.03
2017-09-18T06:19:42.609Z,32.17
2017-09-18T06:22:09.073Z,29.37
2017-09-18T06:24:35.313Z,31.47
2017-09-18T06:27:01.626Z,18.93
2017-09-18T06:29:27.985Z,38.10
2017-09-18T06:31:54.539Z,23.47
2017-09-18T06:34:21.354Z,21.20
2017-09-18T06:36:47.605Z,22.77
2017-09-18T06:39:13.841Z,26.40
2017-09-18T06:41:41.834Z,34.30
2017-09-18T06:44:08.286Z,31.60
2017-09-18T06:46:34.808Z,23.10
2017-09-18T06:49:02.111Z,21.77
2017-09-18T06:51:28.457Z,29.87
2017-09-18T06:53:54.677Z,16.10
2017-09-18T06:56:20.987Z,17.37
2017-09-18T06:58:47.217Z,33.23
2017-09-18T07:01:13.433Z,16.80
2017-09-18T07:03:40.081Z,17.70
2017-09-18T07:06:06.326Z,19.33
2017-09-18T07:08:32.566Z,19.83
2017-09-18T07:10:59.114Z,14.60
2017-09-18T07:13:26.121Z,17.60
2017-09-18T07:15:52.350Z,13.13
2017-09-18T07:18:18.641Z,14.03
2017-09-18T07:20:45.704Z,16.67
2017-09-18T07:23:11.958Z,51.73
2017-09-18T07:25:38.233Z,24.53
2017-09-18T07:28:05.207Z,14.90
2017-09-18T07:30:31.795Z,15.10
2017-09-18T07:32:58.047Z,15.23
2017-09-18T07:35:24.290Z,14.97
2017-09-18T07:37:50.670Z,14.70
2017-09-18T07:40:16.905Z,12.47
2017-09-18T07:42:43.128Z,12.87
2017-09-18T07:45:09.475Z,13.40
2017-09-18T07:47:36.441Z,12.67
2017-09-18T07:50:02.706Z,10.60
2017-09-18T07:52:28.958Z,9.70
2017-09-18T07:54:55.782Z,9.93
2017-09-18T07:57:22.197Z,10.00
2017-09-18T07:59:48.646Z,9.00
2017-09-18T08:02:14.901Z,8.70
2017-09-18T08:04:41.146Z,6.93
2017-09-18T08:07:08.138Z,6.43
2017-09-18T08:09:34.345Z,5.63
2017-09-18T08:12:00.568Z,6.60
2017-09-18T08:14:26.821Z,6.40
2017-09-18T08:16:53.046Z,6.90
2017-09-18T08:19:19.268Z,7.03
2017-09-18T08:21:45.568Z,7.87
2017-09-18T08:24:12.529Z,6.80
2017-09-18T08:26:38.760Z,6.77
2017-09-18T08:29:04.997Z,8.03
2017-09-18T08:31:31.219Z,6.67
2017-09-18T08:33:57.848Z,6.80
2017-09-18T08:36:24.088Z,7.33
2017-09-18T08:38:50.342Z,6.30
2017-09-18T08:41:16.580Z,6.57
2017-09-18T08:43:43.222Z,9.00
2017-09-18T08:46:09.465Z,5.40
2017-09-18T08:48:35.689Z,6.23
2017-09-18T08:51:02.202Z,50.83
2017-09-18T08:53:28.431Z,9.43
2017-09-18T08:55:54.666Z,5.90
2017-09-18T08:58:21.011Z,5.30
2017-09-18T09:00:47.249Z,5.47
2017-09-18T09:03:14.234Z,4.23
2017-09-18T09:05:40.540Z,4.77
2017-09-18T09:08:07.540Z,4.63
2017-09-18T09:10:33.836Z,5.43
2017-09-18T09:13:00.137Z,7.13
2017-09-18T09:15:27.118Z,5.70
2017-09-18T09:17:53.351Z,5.83
2017-09-18T09:20:20.654Z,29.97
2017-09-18T09:22:46.942Z,5.00
2017-09-18T09:25:14.622Z,5.37
2017-09-18T09:27:40.909Z,3.80
2017-09-18T09:30:07.215Z,3.93
2017-09-18T09:32:34.477Z,3.80
2017-09-18T09:35:01.620Z,3.73
2017-09-18T09:37:28.597Z,2.40
2017-09-18T09:39:54.832Z,4.40
2017-09-18T09:42:21.185Z,3.83
2017-09-18T09:44:47.554Z,3.93
2017-09-18T09:47:16.327Z,3.10
2017-09-18T09:49:43.632Z,3.23
2017-09-18T09:52:09.869Z,3.30
2017-09-18T09:54:36.093Z,4.80
2017-09-18T09:57:02.361Z,4.07
2017-09-18T09:59:28.605Z,3.43
2017-09-18T10:01:55.593Z,7.07
2017-09-18T10:04:22.151Z,3.87
2017-09-18T10:06:48.373Z,6.13
2017-09-18T10:09:14.597Z,6.40
2017-09-18T10:11:40.837Z,4.30
2017-09-18T10:14:07.076Z,2.80
2017-09-18T10:16:33.308Z,4.80
2017-09-18T10:19:00.106Z,3.93
2017-09-18T10:21:26.532Z,5.60
2017-09-18T10:23:53.539Z,7.03
2017-09-18T10:26:20.579Z,45.20
2017-09-18T10:28:47.073Z,4.23
2017-09-18T10:31:13.306Z,5.60
2017-09-18T10:33:40.846Z,4.30
2017-09-18T10:36:08.199Z,9.30
2017-09-18T10:38:35.245Z,3.50
2017-09-18T10:41:02.092Z,4.10
2017-09-18T10:43:28.322Z,13.90
2017-09-18T10:45:54.784Z,40.50
2017-09-18T10:48:21.474Z,78.00
2017-09-18T10:50:47.693Z,4.87
2017-09-18T10:53:14.651Z,9.43
2017-09-18T10:55:41.961Z,5.33
2017-09-18T10:58:08.536Z,6.37
2017-09-18T11:00:34.813Z,16.77
2017-09-18T11:03:01.349Z,5.60
2017-09-18T11:05:27.577Z,14.43
2017-09-18T11:07:53.838Z,5.90
2017-09-18T11:10:20.922Z,11.60
2017-09-18T11:12:47.162Z,5.90
2017-09-18T11:15:13.722Z,4.87
2017-09-18T11:17:40.805Z,8.60
2017-09-18T11:20:07.121Z,4.80
2017-09-18T11:22:33.493Z,6.27
2017-09-18T11:24:59.726Z,5.90
2017-09-18T11:27:25.955Z,4.30
2017-09-18T11:29:52.216Z,19.30
2017-09-18T11:32:18.477Z,3.90
2017-09-18T11:34:45.445Z,7.20
2017-09-18T11:37:11.970Z,4.50
2017-09-18T11:39:38.937Z,3.57
2017-09-18T11:42:05.178Z,4.90
2017-09-18T11:44:31.446Z,42.00
2017-09-18T11:46:57.666Z,4.87
2017-09-18T11:49:24.000Z,5.17
2017-09-18T11:51:50.277Z,4.23
2017-09-18T11:54:16.499Z,4.20
2017-09-18T11:56:42.721Z,4.23
2017-09-18T11:59:08.949Z,6.63
2017-09-18T12:01:35.169Z,4.90
2017-09-18T12:04:02.473Z,3.97
2017-09-18T12:06:28.697Z,4.60
2017-09-18T12:08:54.921Z,6.00
2017-09-18T12:11:21.161Z,8.67
2017-09-18T12:13:47.377Z,4.07
2017-09-18T12:16:13.608Z,5.80
2017-09-18T12:18:39.833Z,4.90
2017-09-18T12:21:06.803Z,12.10
2017-09-18T12:23:33.018Z,5.23
2017-09-18T12:25:59.277Z,17.83
2017-09-18T12:28:26.237Z,16.93
2017-09-18T12:30:53.188Z,7.50
2017-09-18T12:33:19.692Z,18.20
2017-09-18T12:35:45.920Z,7.53
2017-09-18T12:38:12.372Z,5.00
2017-09-18T12:40:39.352Z,5.67
2017-09-18T12:43:05.576Z,6.23
2017-09-18T12:45:31.805Z,4.60
2017-09-18T12:47:58.261Z,7.47
2017-09-18T12:50:24.484Z,4.80
2017-09-18T12:52:50.700Z,3.57
2017-09-18T12:55:16.932Z,4.73
2017-09-18T12:57:43.158Z,24.43
2017-09-18T13:00:09.406Z,7.00
2017-09-18T13:02:35.648Z,6.20
2017-09-18T13:05:01.869Z,7.63
2017-09-18T13:07:28.079Z,7.40
2017-09-18T13:09:54.510Z,6.33
2017-09-18T13:12:20.741Z,6.00
2017-09-18T13:14:46.957Z,12.10
2017-09-18T13:17:13.324Z,12.63
2017-09-18T13:19:39.544Z,8.13
2017-09-18T13:22:05.781Z,8.43
2017-09-18T13:24:32.068Z,6.63
2017-09-18T13:26:58.289Z,22.93
2017-09-18T13:29:24.507Z,15.50
2017-09-18T13:31:50.724Z,5.40
2017-09-18T13:34:17.678Z,5.00
2017-09-18T13:36:44.177Z,4.90
2017-09-18T13:39:10.405Z,18.53
2017-09-18T13:41:36.662Z,22.87
2017-09-18T13:44:02.950Z,18.50
2017-09-18T13:46:29.164Z,26.23
2017-09-18T13:48:55.387Z,6.00
2017-09-18T13:51:21.624Z,29.30
2017-09-18T13:53:47.845Z,5.07
2017-09-18T13:56:14.060Z,24.90
2017-09-18T13:58:40.316Z,12.83
2017-09-18T14:01:06.529Z,30.43
2017-09-18T14:03:32.764Z,24.97
2017-09-18T14:05:59.761Z,30.00
2017-09-18T14:08:25.973Z,13.03
2017-09-18T14:10:52.958Z,9.03
2017-09-18T14:13:19.174Z,10.07
2017-09-18T14:15:45.426Z,10.60
2017-09-18T14:18:11.966Z,8.30
2017-09-18T14:20:38.170Z,8.73
2017-09-18T14:23:04.403Z,11.67
2017-09-18T14:25:30.858Z,6.60
2017-09-18T14:27:57.903Z,6.60
2017-09-18T14:30:24.128Z,6.80
2017-09-18T14:32:50.383Z,5.67
2017-09-18T14:35:16.611Z,10.23
2017-09-18T14:37:43.577Z,5.50
2017-09-18T14:40:10.580Z,11.57
2017-09-18T14:42:36.817Z,5.40
2017-09-18T14:45:03.074Z,4.00
2017-09-18T14:47:30.040Z,4.70
2017-09-18T14:49:56.329Z,4.90
2017-09-18T14:52:22.849Z,6.23
2017-09-18T14:54:49.077Z,6.30
2017-09-18T14:57:15.316Z,7.70
2017-09-18T14:59:41.540Z,7.00
2017-09-18T15:02:07.745Z,7.20
2017-09-18T15:04:33.962Z,6.80
2017-09-18T15:07:00.186Z,7.50
2017-09-18T15:09:26.417Z,6.97
2017-09-18T15:11:52.649Z,10.10
2017-09-18T15:14:19.168Z,6.27
2017-09-18T15:16:45.389Z,7.30
2017-09-18T15:19:11.610Z,9.17
2017-09-18T15:21:38.577Z,12.33
2017-09-18T15:24:04.864Z,12.50
2017-09-18T15:26:31.096Z,7.70
2017-09-18T15:28:58.084Z,9.33
2017-09-18T15:31:24.441Z,7.87
2017-09-18T15:33:50.673Z,8.23
2017-09-18T15:36:16.900Z,8.37
2017-09-18T15:38:43.154Z,8.10
2017-09-18T15:41:10.129Z,18.33
2017-09-18T15:43:36.341Z,9.93
2017-09-18T15:46:03.645Z,8.97
2017-09-18T15:48:29.853Z,14.80
2017-09-18T15:50:56.152Z,29.97
2017-09-18T15:53:22.641Z,20.93
2017-09-18T15:55:48.863Z,10.90
2017-09-18T15:58:15.117Z,10.47
2017-09-18T16:00:41.357Z,8.40
2017-09-18T16:03:08.572Z,6.67
2017-09-18T16:05:34.805Z,6.73
2017-09-18T16:08:01.027Z,6.20
2017-09-18T16:10:27.276Z,7.27
2017-09-18T16:12:53.520Z,7.77
2017-09-18T16:15:20.493Z,7.10
2017-09-18T16:17:46.721Z,8.47
2017-09-18T16:20:13.297Z,11.23
2017-09-18T16:22:39.524Z,14.83
2017-09-18T16:25:05.758Z,25.83
2017-09-18T16:27:32.312Z,8.20
2017-09-18T16:29:58.570Z,7.53
2017-09-18T16:32:25.531Z,22.90
2017-09-18T16:34:51.762Z,15.60
2017-09-18T16:37:17.987Z,41.90
2017-09-18T16:39:44.213Z,15.47
2017-09-18T16:42:10.478Z,14.13
2017-09-18T16:44:36.705Z,16.80
2017-09-18T16:47:02.927Z,9.00
2017-09-18T16:49:29.209Z,10.10
2017-09-18T16:51:56.202Z,9.10
2017-09-18T16:54:22.465Z,12.80
2017-09-18T16:56:48.683Z,10.00
2017-09-18T16:59:14.904Z,16.80
2017-09-18T17:01:41.180Z,49.07
2017-09-18T17:04:07.418Z,100.60
2017-09-18T17:06:33.649Z,13.40
2017-09-18T17:09:00.207Z,20.77
2017-09-18T17:11:26.441Z,27.30
2017-09-18T17:13:52.744Z,34.27
2017-09-18T17:16:18.993Z,37.83
2017-09-18T17:18:45.210Z,35.47
2017-09-18T17:21:11.441Z,47.60
2017-09-18T17:23:37.690Z,35.00
2017-09-18T17:26:03.901Z,27.87
2017-09-18T17:28:30.113Z,58.67
2017-09-18T17:30:56.361Z,17.90
2017-09-18T17:33:22.581Z,20.90
2017-09-18T17:35:48.804Z,17.23
2017-09-18T17:38:15.361Z,18.70
2017-09-18T17:40:41.596Z,28.97
2017-09-18T17:43:07.832Z,27.90
2017-09-18T17:45:34.304Z,20.10
2017-09-18T17:48:00.525Z,43.07
2017-09-18T17:50:27.496Z,27.20
2017-09-18T17:52:54.221Z,19.90
2017-09-18T17:55:20.439Z,19.77
2017-09-18T17:57:47.392Z,21.10
2017-09-18T18:00:13.648Z,20.43
2017-09-18T18:02:39.868Z,21.20
2017-09-18T18:05:06.093Z,115.70
2017-09-18T18:07:32.340Z,147.67
2017-09-18T18:09:58.597Z,66.40
2017-09-18T18:12:24.899Z,61.73
2017-09-18T18:14:51.131Z,32.43
2017-09-18T18:17:17.363Z,26.03
2017-09-18T18:19:43.598Z,42.93
2017-09-18T18:22:09.883Z,49.23
2017-09-18T18:24:36.117Z,40.77
2017-09-18T18:27:02.352Z,37.70
2017-09-18T18:29:28.923Z,24.03
2017-09-18T18:31:55.168Z,41.13
2017-09-18T18:34:22.145Z,39.50
2017-09-18T18:36:48.716Z,51.13
2017-09-18T18:39:14.937Z,45.50
2017-09-18T18:41:41.180Z,47.73
2017-09-18T18:44:07.489Z,39.67
2017-09-18T18:46:33.713Z,27.20
2017-09-18T18:48:59.967Z,46.33
2017-09-18T18:51:26.219Z,56.17
2017-09-18T18:53:53.258Z,38.70
2017-09-18T18:56:19.503Z,35.90
2017-09-18T18:58:46.661Z,53.00
2017-09-18T19:01:13.633Z,69.00
2017-09-18T19:03:39.913Z,39.90
2017-09-18T19:06:06.423Z,35.40
2017-09-18T19:08:32.666Z,43.63
2017-09-18T19:10:59.155Z,66.10
2017-09-18T19:13:25.388Z,67.77
2017-09-18T19:15:51.617Z,60.70
2017-09-18T19:18:17.848Z,27.93
2017-09-18T19:20:44.115Z,39.93
2017-09-18T19:23:10.373Z,84.57
2017-09-18T19:25:37.384Z,26.30
2017-09-18T19:28:03.661Z,53.20
2017-09-18T19:30:29.896Z,46.77
2017-09-18T19:32:56.126Z,30.30
2017-09-18T19:35:22.386Z,158.97
2017-09-18T19:37:48.617Z,116.67
2017-09-18T19:40:14.849Z,122.93
2017-09-18T19:42:41.378Z,122.53
2017-09-18T19:45:07.614Z,52.90
2017-09-18T19:47:33.877Z,39.70
2017-09-18T19:50:00.878Z,30.20
2017-09-18T19:52:27.105Z,35.80
2017-09-18T19:54:53.326Z,35.93
2017-09-18T19:57:19.592Z,91.20
2017-09-18T19:59:45.817Z,61.13
2017-09-18T20:02:12.047Z,29.77
2017-09-18T20:04:39.052Z,30.30
2017-09-18T20:07:05.307Z,145.47
2017-09-18T20:09:31.567Z,83.93
2017-09-18T20:11:58.877Z,138.70
2017-09-18T20:14:25.109Z,136.47
2017-09-18T20:16:51.337Z,99.47
2017-09-18T20:19:17.568Z,119.63
2017-09-18T20:21:44.097Z,133.30
2017-09-18T20:24:10.333Z,158.27
2017-09-18T20:26:37.316Z,223.73
2017-09-18T20:29:04.316Z,76.03
2017-09-18T20:31:30.541Z,144.47
2017-09-18T20:33:56.793Z,113.83
2017-09-18T20:36:23.069Z,44.00
2017-09-18T20:38:49.322Z,39.33
2017-09-18T20:41:15.590Z,32.20
2017-09-18T20:43:42.601Z,30.60
2017-09-18T20:46:08.845Z,109.10
2017-09-18T20:48:35.140Z,53.80
2017-09-18T20:51:01.402Z,76.80
2017-09-18T20:53:27.629Z,29.47
2017-09-18T20:55:53.863Z,77.30
2017-09-18T20:58:20.121Z,33.03
2017-09-18T21:00:47.097Z,32.50
2017-09-18T21:03:13.352Z,84.13
2017-09-18T21:05:39.880Z,30.80
2017-09-18T21:08:06.128Z,31.90
2017-09-18T21:10:32.363Z,61.20
2017-09-18T21:12:58.632Z,50.13
2017-09-18T21:15:24.861Z,48.30
2017-09-18T21:17:51.110Z,51.07
2017-09-18T21:20:17.365Z,57.33
2017-09-18T21:22:43.598Z,61.00
2017-09-18T21:25:09.832Z,43.57
2017-09-18T21:27:36.059Z,29.60
2017-09-18T21:30:02.309Z,32.27
2017-09-18T21:32:29.314Z,23.77
2017-09-18T21:34:55.541Z,25.53
2017-09-18T21:37:21.783Z,24.13
2017-09-18T21:39:48.389Z,22.47
2017-09-18T21:42:14.614Z,23.57
2017-09-18T21:44:40.836Z,27.13
2017-09-18T21:47:07.089Z,25.97
2017-09-18T21:49:33.342Z,26.60
2017-09-18T21:51:59.578Z,25.13
2017-09-18T21:54:26.895Z,35.53
2017-09-18T21:56:53.129Z,47.73
2017-09-18T21:59:19.360Z,51.90
2017-09-18T22:01:45.745Z,42.40
2017-09-18T22:04:11.967Z,51.03
2017-09-18T22:06:38.216Z,26.50
2017-09-18T22:09:04.647Z,25.23
2017-09-18T22:11:30.871Z,22.63
2017-09-18T22:13:57.099Z,26.80
2017-09-18T22:16:23.358Z,25.40
2017-09-18T22:18:49.585Z,23.40
2017-09-18T22:21:15.824Z,23.93
2017-09-18T22:23:42.449Z,22.87
2017-09-18T22:26:08.682Z,22.03
2017-09-18T22:28:34.980Z,22.10
2017-09-18T22:31:01.243Z,20.63
2017-09-18T22:33:28.215Z,23.87
2017-09-18T22:35:54.554Z,62.93
2017-09-18T22:38:21.520Z,75.40
2017-09-18T22:40:47.741Z,44.17
2017-09-18T22:43:14.002Z,79.13
2017-09-18T22:45:40.252Z,54.97
2017-09-18T22:48:06.489Z,36.10
2017-09-18T22:50:33.010Z,22.10
2017-09-18T22:52:59.241Z,25.40
2017-09-18T22:55:25.490Z,25.20
2017-09-18T22:57:51.835Z,26.37
2017-09-18T23:00:18.809Z,24.20
2017-09-18T23:02:45.073Z,22.20
2017-09-18T23:05:11.334Z,23.70
2017-09-18T23:07:38.317Z,23.20
2017-09-18T23:10:04.544Z,23.43
2017-09-18T23:12:30.793Z,22.87
2017-09-18T23:14:57.027Z,23.37
2017-09-18T23:17:23.285Z,22.90
2017-09-18T23:19:49.822Z,22.90
2017-09-18T23:22:16.049Z,22.17
2017-09-18T23:24:42.277Z,23.07
2017-09-18T23:27:08.497Z,22.73
2017-09-18T23:29:34.726Z,22.33
2017-09-18T23:32:00.982Z,23.30
2017-09-18T23:34:27.941Z,21.20
2017-09-18T23:36:54.159Z,19.90
2017-09-18T23:39:21.155Z,20.23
2017-09-18T23:41:47.381Z,19.23
2017-09-18T23:44:13.592Z,19.43
2017-09-18T23:46:39.835Z,18.90
2017-09-18T23:49:06.060Z,20.10
2017-09-18T23:51:32.289Z,25.83
2017-09-18T23:53:58.543Z,26.67
2017-09-18T23:56:24.758Z,68.47
2017-09-18T23:58:50.992Z,77.23
